createdAt,value
2023-03-17T00:01:17.652Z,98410.51871361645
2023-03-17T00:04:18.322Z,98411.9856631621
2023-03-17T00:07:17.918Z,98401.54700619915
2023-03-17T00:11:17.714Z,98408.56957370612
2023-03-17T00:14:18.227Z,98409.80129631946
2023-03-17T00:17:17.316Z,98414.45048557053
2023-03-17T00:21:24.135Z,98410.92906355018
2023-03-17T00:24:17.603Z,98416.31268876312
2023-03-17T00:27:18.566Z,98418.6201065617
2023-03-17T00:31:19.890Z,98421.72141757565
2023-03-17T00:34:18.858Z,98421.53822186611
2023-03-17T00:37:16.877Z,98420.22556093016
2023-03-17T00:41:16.548Z,98423.28588106396
2023-03-17T00:44:16.613Z,98427.66285330971
2023-03-17T00:47:16.707Z,98427.18983200603
2023-03-17T00:51:17.115Z,98430.19826247216
2023-03-17T00:54:18.932Z,98429.6964075512
2023-03-17T00:57:17.376Z,98427.71868313929
2023-03-17T01:01:16.756Z,98433.35998699346
2023-03-17T01:04:16.939Z,98433.98203354672
2023-03-17T01:07:17.195Z,98435.6907846822
2023-03-17T01:11:19.355Z,98437.46980100528
2023-03-17T01:14:17.378Z,98435.1005474786
2023-03-17T01:17:17.971Z,98434.10574884569
2023-03-17T01:21:16.597Z,98434.41929456056
2023-03-17T01:24:17.074Z,98433.36050997565
2023-03-17T01:27:18.608Z,98435.38459941027
2023-03-17T01:31:16.357Z,98425.00404860904
2023-03-17T01:34:16.858Z,98426.28366067715
2023-03-17T01:37:16.709Z,98426.03082619821
2023-03-17T01:41:17.246Z,98421.89569023189
2023-03-17T01:44:18.570Z,98416.85698374013
2023-03-17T01:47:17.425Z,98419.61298612453
2023-03-17T01:51:20.787Z,98422.51981637171
2023-03-17T01:54:23.395Z,98427.54589632123
2023-03-17T01:57:22.348Z,98424.0658492527
2023-03-17T02:01:17.201Z,98420.62508320755
2023-03-17T02:04:18.546Z,98417.87051842597
2023-03-17T02:07:17.809Z,98414.77118850563
2023-03-17T02:11:17.748Z,98410.59204820414
2023-03-17T02:14:17.157Z,98411.98136602933
2023-03-17T02:17:17.210Z,98407.121415167
2023-03-17T02:21:51.966Z,98408.05167183797
2023-03-17T02:24:25.073Z,98405.35011193228
2023-03-17T02:27:20.365Z,98403.36908774417
2023-03-17T02:31:17.507Z,98406.03080602206
2023-03-17T02:34:17.661Z,98404.99975124968
2023-03-17T02:37:18.675Z,98402.34687363826
2023-03-17T02:41:17.348Z,98413.71317560683
2023-03-17T02:44:17.247Z,98411.99642917105
2023-03-17T02:47:17.068Z,98412.55397566922
2023-03-17T02:51:16.948Z,98410.53382984623
2023-03-17T02:54:17.250Z,98407.03120186168
2023-03-17T02:57:17.041Z,98406.6036132089
2023-03-17T03:01:17.296Z,98402.69326015303
2023-03-17T03:04:17.168Z,98400.31844809599
2023-03-17T03:07:16.588Z,98395.41430234937
2023-03-17T03:11:17.195Z,98398.17804463558
2023-03-17T03:14:17.249Z,98402.93080766176
2023-03-17T03:17:17.066Z,98409.37682588489
2023-03-17T03:21:16.870Z,98411.14238877605
2023-03-17T03:24:17.393Z,98410.780834003
2023-03-17T03:27:17.462Z,98411.4099066646
2023-03-17T03:41:16.517Z,98416.35291141829
2023-03-17T03:44:16.677Z,98420.74767054548
2023-03-17T03:47:16.435Z,98417.89695990983
2023-03-17T03:51:16.664Z,98419.70888950764
2023-03-17T03:54:17.027Z,98419.525566986
2023-03-17T03:57:16.977Z,98422.54620188707
2023-03-17T04:01:16.126Z,98429.29789672243
2023-03-17T04:04:16.699Z,98431.80606349849
2023-03-17T04:07:16.864Z,98430.47762821314
2023-03-17T04:11:16.367Z,98431.98259784566
2023-03-17T04:14:16.671Z,98435.653505129
2023-03-17T04:17:16.770Z,98435.81358722097
2023-03-17T04:21:18.810Z,98438.09536039524
2023-03-17T04:24:16.590Z,98446.76757701552
2023-03-17T04:27:17.669Z,98443.09715298587
2023-03-17T04:31:16.226Z,98442.46219568222
2023-03-17T04:34:18.171Z,98449.23707137819
2023-03-17T04:37:16.390Z,98449.51364847648
2023-03-17T04:41:16.718Z,98447.2145944819
2023-03-17T04:44:16.967Z,98446.48100822754
2023-03-17T04:47:17.096Z,98452.92894815351
2023-03-17T04:51:17.539Z,98446.31782551654
2023-03-17T04:54:17.324Z,98450.42274642516
2023-03-17T04:57:16.649Z,98455.84677426143
2023-03-17T05:01:17.003Z,98451.41373185426
2023-03-17T05:04:30.730Z,98447.92703772605
2023-03-17T05:07:17.131Z,98455.81577501829
2023-03-17T05:11:16.687Z,98457.35289650675
2023-03-17T05:14:17.285Z,98462.95118062472
2023-03-17T05:17:17.098Z,98460.41795732435
2023-03-17T05:21:16.804Z,98468.58563906547
2023-03-17T05:24:16.762Z,98460.73704588268
2023-03-17T05:27:16.681Z,98461.00651264584
2023-03-17T05:31:16.788Z,98464.30804948005
2023-03-17T05:34:17.888Z,98470.39802026656
2023-03-17T05:37:17.685Z,98465.7667170331
2023-03-17T05:41:17.247Z,98476.38736009185
2023-03-17T05:44:16.983Z,98477.52187664316
2023-03-17T05:47:16.744Z,98477.70297117645
2023-03-17T05:51:16.965Z,98477.85781404265
2023-03-17T05:54:16.991Z,98475.89605760011
2023-03-17T05:57:17.802Z,98470.09015393457
2023-03-17T06:01:17.257Z,98475.9477092589
2023-03-17T06:04:17.715Z,98478.24500704824
2023-03-17T06:07:17.921Z,98477.48824820701
2023-03-17T06:11:16.863Z,98478.14589980926
2023-03-17T06:14:17.228Z,98490.79735586667
2023-03-17T06:17:17.073Z,98485.7746243977
2023-03-17T06:21:16.763Z,98497.23995653905
2023-03-17T06:24:17.221Z,98498.02237510312
2023-03-17T06:27:16.796Z,98497.95038878128
2023-03-17T06:31:16.531Z,98495.43848243923
2023-03-17T06:34:17.866Z,98495.87832653894
2023-03-17T06:37:17.411Z,98499.56139280862
2023-03-17T06:41:16.782Z,98495.60089486057
2023-03-17T06:44:16.750Z,98493.91489980441
2023-03-17T06:47:16.772Z,98499.89055147835
2023-03-17T06:51:17.218Z,98500.65906542914
2023-03-17T06:54:18.955Z,98499.31811630618
2023-03-17T06:57:17.984Z,98501.12740132432
2023-03-17T07:01:18.176Z,98495.4171934503
2023-03-17T07:04:17.866Z,98496.09431796544
2023-03-17T07:07:17.704Z,98493.97032669402
2023-03-17T07:11:16.275Z,98487.8101348957
2023-03-17T07:14:16.497Z,98492.21130738826
2023-03-17T07:17:16.578Z,98493.46537648558
2023-03-17T07:21:17.097Z,98494.69706823169
2023-03-17T07:24:17.131Z,98496.1399361465
2023-03-17T07:27:16.958Z,98493.83301128686
2023-03-17T07:31:16.617Z,98488.96784933118
2023-03-17T07:34:17.157Z,98494.67904538721
2023-03-17T07:37:17.992Z,98494.33483046807
2023-03-17T07:41:17.191Z,98492.38246999054
2023-03-17T07:44:17.050Z,98485.71971172749
2023-03-17T07:47:17.195Z,98491.18680387565
2023-03-17T07:51:18.470Z,98486.7986076156
2023-03-17T07:54:17.524Z,98486.71429610119
2023-03-17T07:57:17.371Z,98488.37097495366
2023-03-17T08:01:16.776Z,98493.57048722323
2023-03-17T08:04:16.922Z,98495.83802140284
2023-03-17T08:07:16.527Z,98500.31913069285
2023-03-17T08:11:18.303Z,98497.75565897053
2023-03-17T08:14:17.469Z,98495.82899553368
2023-03-17T08:17:18.058Z,98500.59096142853
2023-03-17T08:21:17.234Z,98502.35711072928
2023-03-17T08:24:17.927Z,98505.76037958906
2023-03-17T08:27:17.452Z,98503.73965761237
2023-03-17T08:31:20.899Z,98500.88689995138
2023-03-17T08:34:17.282Z,98499.32957288712
2023-03-17T08:37:16.540Z,98502.56462536458
2023-03-17T08:41:19.785Z,98501.15677891749
2023-03-17T08:44:17.555Z,98502.31417011785
2023-03-17T08:47:17.901Z,98505.33545517494
2023-03-17T08:51:20.813Z,98502.94891569308
2023-03-17T08:54:17.412Z,98506.53331735982
2023-03-17T08:57:17.666Z,98501.40234300491
2023-03-17T09:01:18.414Z,98505.30651806145
2023-03-17T09:04:17.354Z,98500.14440785845
2023-03-17T09:07:17.579Z,98494.27192534201
2023-03-17T09:11:19.241Z,98494.49099039802
2023-03-17T09:14:16.572Z,98495.95345104265
2023-03-17T09:17:16.732Z,98488.9076548845
2023-03-17T09:21:17.795Z,98485.51811500116
2023-03-17T09:24:18.009Z,98488.44448175798
2023-03-17T09:27:17.259Z,98481.1505672536
2023-03-17T09:31:17.193Z,98472.29501722529
2023-03-17T09:34:17.134Z,98472.75987114977
2023-03-17T09:37:17.184Z,98472.98658664337
2023-03-17T09:41:39.976Z,98479.56804444062
2023-03-17T09:44:26.237Z,98477.365813072
2023-03-17T09:47:36.975Z,98474.95125200562
2023-03-17T09:51:18.418Z,98471.28306486155
2023-03-17T09:54:26.793Z,98468.58847793304
2023-03-17T09:57:24.417Z,98470.39008793046
2023-03-17T10:01:16.846Z,98470.25272756355
2023-03-17T10:04:18.852Z,98462.9467792696
2023-03-17T10:07:23.150Z,98461.18458010817
2023-03-17T10:11:28.972Z,98461.18211571491
2023-03-17T10:14:36.849Z,98460.87100862147
2023-03-17T10:17:19.250Z,98465.37117834316
2023-03-17T10:21:21.861Z,98462.0707023966
2023-03-17T10:24:18.294Z,98459.57818773217
2023-03-17T10:27:18.202Z,98449.4648972936
2023-03-17T10:31:19.089Z,98452.44278399527
2023-03-17T10:34:20.519Z,98447.58178333822
2023-03-17T10:37:22.002Z,98450.4428738842
2023-03-17T10:41:17.204Z,98445.3141257464
2023-03-17T10:44:27.430Z,98443.50058825858
2023-03-17T10:47:43.063Z,98447.74719908598
2023-03-17T10:51:21.668Z,98445.4869853423
2023-03-17T10:54:20.321Z,98434.34051996391
2023-03-17T10:57:19.686Z,98433.91155923883
2023-03-17T11:01:20.925Z,98429.09930464189
2023-03-17T11:04:35.204Z,98432.87209645871
2023-03-17T11:07:18.893Z,98432.70257014701
2023-03-17T11:11:25.797Z,98432.32590601408
2023-03-17T11:14:19.019Z,98428.65956627586
2023-03-17T11:17:20.440Z,98426.737736655
2023-03-17T11:21:21.092Z,98421.71594831038
2023-03-17T11:24:22.205Z,98423.54968293963
2023-03-17T11:27:28.565Z,98422.39859680405
2023-03-17T11:31:25.073Z,98415.1448147137
2023-03-17T11:34:28.047Z,98418.27985311193
2023-03-17T11:37:29.000Z,98407.62769317858
2023-03-17T11:41:42.318Z,98406.02983621217
2023-03-17T11:44:53.886Z,98398.98684373146
2023-03-17T11:47:27.472Z,98402.11996910202
2023-03-17T11:51:26.858Z,98397.51984837075
2023-03-17T11:54:25.750Z,98387.67532357755
2023-03-17T11:57:22.302Z,98388.89534193414
2023-03-17T12:01:22.238Z,98397.82401377858
2023-03-17T12:04:24.532Z,98388.82638782595
2023-03-17T12:07:19.555Z,98382.38753217405
2023-03-17T12:11:21.793Z,98385.31517722445
2023-03-17T12:14:26.824Z,98376.92150286348
2023-03-17T12:17:22.871Z,98376.3400080851
2023-03-17T12:21:23.740Z,98372.84647035261
2023-03-17T12:24:21.335Z,98374.48215011202
2023-03-17T12:27:25.629Z,98371.3663042749
2023-03-17T12:31:20.766Z,98369.20853239014
2023-03-17T12:34:21.725Z,98361.85868218321
2023-03-17T12:37:18.488Z,98352.95324394581
2023-03-17T12:41:43.817Z,98354.36787205008
2023-03-17T12:44:30.111Z,98353.15152798603
2023-03-17T12:48:01.745Z,98346.58428368757
2023-03-17T12:51:55.394Z,98346.20472581741
2023-03-17T12:54:19.804Z,98349.32050036364
2023-03-17T12:57:18.499Z,98343.46073739616
2023-03-17T13:01:28.835Z,98342.42292971667
2023-03-17T13:04:22.077Z,98343.56216312727
2023-03-17T13:07:21.431Z,98341.8590691474
2023-03-17T13:11:25.745Z,98338.97345531407
2023-03-17T13:14:24.970Z,98344.2834374785
2023-03-17T13:17:33.320Z,98343.26979273849
2023-03-17T13:21:21.776Z,98339.10339982458
2023-03-17T13:24:34.517Z,98341.32139737843
2023-03-17T13:27:50.025Z,98337.15424811095
2023-03-17T13:31:35.167Z,98337.24652257984
2023-03-17T13:34:18.405Z,98334.83110657854
2023-03-17T13:37:24.297Z,98332.09489043534
2023-03-17T13:41:31.268Z,98333.81092330263
2023-03-17T13:44:33.644Z,98332.88721018155
2023-03-17T13:47:30.526Z,98326.97964316377
2023-03-17T13:51:20.539Z,98325.23864837317
2023-03-17T13:54:28.418Z,98325.65957523308
2023-03-17T13:57:27.210Z,98325.07425457059
2023-03-17T14:01:17.199Z,98334.40445675874
2023-03-17T14:04:20.660Z,98335.29001641339
2023-03-17T14:07:20.458Z,98328.27594586922
2023-03-17T14:11:23.359Z,98325.57017608463
2023-03-17T14:14:32.861Z,98319.55193036118
2023-03-17T14:17:22.633Z,98321.00845725316
2023-03-17T14:21:21.592Z,98311.11815643094
2023-03-17T14:24:19.966Z,98312.7804524402
2023-03-17T14:27:16.592Z,98304.93670303297
2023-03-17T14:31:21.785Z,98301.39878400792
2023-03-17T14:34:21.008Z,98304.41262281491
2023-03-17T14:37:18.302Z,98302.15631522745
2023-03-17T14:41:18.754Z,98299.08213839411
2023-03-17T14:44:16.683Z,98300.45164714407
2023-03-17T14:47:22.386Z,98291.96281603475
2023-03-17T14:51:25.560Z,98288.84571335318
2023-03-17T14:54:19.774Z,98285.38708459803
2023-03-17T14:57:16.960Z,98281.57623828975
2023-03-17T15:01:19.210Z,98281.1038754416
2023-03-17T15:04:20.004Z,98277.91745655859
2023-03-17T15:07:29.201Z,98277.21100298822
2023-03-17T15:11:21.201Z,98280.65409751184
2023-03-17T15:14:21.538Z,98278.51637652416
2023-03-17T15:17:19.769Z,98275.77884231399
2023-03-17T15:21:30.877Z,98277.65536639381
2023-03-17T15:24:24.918Z,98272.98490398322
2023-03-17T15:27:17.629Z,98272.58644686326
2023-03-17T15:31:16.239Z,98270.07017226954
2023-03-17T15:34:16.691Z,98269.99512368484
2023-03-17T15:37:19.089Z,98262.24507637497
2023-03-17T15:41:15.863Z,98265.10295703681
2023-03-17T15:44:16.228Z,98264.11728863757
2023-03-17T15:47:19.102Z,98254.93812908689
2023-03-17T15:51:17.375Z,98260.17832469185
2023-03-17T15:54:16.783Z,98251.95322333352
2023-03-17T15:57:16.588Z,98253.43835205352
2023-03-17T16:01:17.686Z,98254.78621409801
2023-03-17T16:04:18.096Z,98257.37923244425
2023-03-17T16:07:16.586Z,98255.09825460422
2023-03-17T16:11:19.627Z,98259.45620027269
2023-03-17T16:14:16.962Z,98259.6651925344
2023-03-17T16:17:22.564Z,98263.33353779817
2023-03-17T16:21:18.155Z,98262.42328394706
2023-03-17T16:24:18.850Z,98265.56943626751
2023-03-17T16:27:16.292Z,98267.30405160476
2023-03-17T16:31:21.488Z,98274.19641644857
2023-03-17T16:34:18.915Z,98274.61605465089
2023-03-17T16:37:16.955Z,98271.80327520169
2023-03-17T16:41:19.592Z,98270.3979732879
2023-03-17T17:01:19.109Z,98284.89140432746
2023-03-17T17:04:16.567Z,98282.97762003956
2023-03-17T17:07:16.632Z,98288.82291054823
2023-03-17T17:11:18.373Z,98289.47881530237
2023-03-17T17:14:16.612Z,98290.42401506893
2023-03-17T17:17:16.604Z,98298.85685236003
2023-03-17T17:21:16.188Z,98295.9677132676
2023-03-17T17:24:16.381Z,98300.87667621895
2023-03-17T17:27:16.463Z,98301.10821979071
2023-03-17T17:31:16.225Z,98300.12157060934
2023-03-17T17:34:16.407Z,98299.53691016774
2023-03-17T17:37:16.796Z,98303.08960481183
2023-03-17T17:41:17.604Z,98304.92623326668
2023-03-17T17:44:16.696Z,98303.02396881429
2023-03-17T17:47:16.887Z,98309.53954918828
2023-03-17T17:51:15.935Z,98312.19039328684
2023-03-17T17:54:16.494Z,98309.09966908135
2023-03-17T17:57:17.278Z,98311.52487518672
2023-03-17T18:01:21.008Z,98311.97759262144
2023-03-17T18:04:16.968Z,98317.15350952954
2023-03-17T18:07:17.095Z,98316.1046468561
2023-03-17T18:11:17.012Z,98321.72454417357
2023-03-17T18:14:17.636Z,98332.48575232347
2023-03-17T18:17:21.719Z,98338.23503587025
2023-03-17T18:21:16.649Z,98338.43195248205
2023-03-17T18:24:19.229Z,98342.25908584947
2023-03-17T18:27:17.560Z,98337.44388015932
2023-03-17T18:31:23.321Z,98347.45774595709
2023-03-17T18:34:24.843Z,98343.45615450385
2023-03-17T18:37:18.184Z,98347.83765333153
2023-03-17T18:41:17.737Z,98350.6096867959
2023-03-17T18:44:21.131Z,98353.60068163321
2023-03-17T18:47:18.541Z,98353.07372767013
2023-03-17T18:51:17.455Z,98357.61928733632
2023-03-17T18:54:16.674Z,98356.77354894427
2023-03-17T18:57:16.798Z,98356.19730350267
2023-03-17T19:01:16.285Z,98362.07408793652
2023-03-17T19:04:19.882Z,98368.72398564998
2023-03-17T19:07:17.361Z,98365.08865891365
2023-03-17T19:11:21.405Z,98364.97674711337
2023-03-17T19:14:17.104Z,98371.35583206362
2023-03-17T19:17:20.356Z,98373.24512478749
2023-03-17T19:21:16.502Z,98380.04799992245
2023-03-17T19:24:17.069Z,98376.79128379027
2023-03-17T19:27:16.766Z,98380.38398418942
2023-03-17T19:31:15.981Z,98379.46174105172
2023-03-17T19:34:16.378Z,98385.04504047979
2023-03-17T19:37:16.391Z,98383.6327324267
2023-03-17T19:41:16.665Z,98389.85351979331
2023-03-17T19:44:16.999Z,98393.32569975404
2023-03-17T19:47:17.175Z,98396.34679815304
2023-03-17T19:51:16.432Z,98391.97219594852
2023-03-17T19:54:17.148Z,98391.96257265704
2023-03-17T19:57:17.627Z,98398.31153177355
2023-03-17T20:01:17.473Z,98399.9020923199
2023-03-17T20:04:19.750Z,98409.40663734646
2023-03-17T20:07:16.883Z,98408.89539559299
2023-03-17T20:11:16.992Z,98408.85126522867
2023-03-17T20:14:16.521Z,98411.44503179222
2023-03-17T20:17:17.800Z,98403.96928435507
2023-03-17T20:21:16.697Z,98407.6153254228
2023-03-17T20:24:17.657Z,98403.48372843882
2023-03-17T20:27:18.073Z,98404.21168524332
2023-03-17T20:31:17.402Z,98405.99714432366
2023-03-17T20:34:17.053Z,98405.10354839392
2023-03-17T20:37:18.956Z,98397.30951957506
2023-03-17T20:41:19.780Z,98397.36364721191
2023-03-17T20:44:16.912Z,98397.63634366567
2023-03-17T20:47:16.603Z,98395.36092912448
2023-03-17T20:51:18.344Z,98397.7729213277
2023-03-17T20:54:17.858Z,98402.37853909376
2023-03-17T20:57:19.051Z,98403.59004941315
2023-03-17T21:01:21.297Z,98403.31135137574
2023-03-17T21:04:17.707Z,98402.11165908207
2023-03-17T21:07:18.719Z,98400.60066390697
2023-03-17T21:11:17.991Z,98402.4383519071
2023-03-17T21:14:16.415Z,98400.47860108258
2023-03-17T21:17:18.178Z,98404.47713901688
2023-03-17T21:21:16.797Z,98412.4651337342
2023-03-17T21:24:27.152Z,98407.28467297115
2023-03-17T21:27:16.706Z,98413.17335247055
2023-03-17T21:31:17.482Z,98409.98215716761
2023-03-17T21:34:16.222Z,98409.03007567125
2023-03-17T21:37:18.520Z,98410.99492560021
2023-03-17T21:41:21.693Z,98411.51010902014
2023-03-17T21:44:18.318Z,98422.7491019651
2023-03-17T21:47:16.589Z,98419.57181837637
2023-03-17T21:51:15.841Z,98417.98875687583
2023-03-17T21:54:17.186Z,98417.85158086228
2023-03-17T21:57:16.732Z,98412.1597972641
2023-03-17T22:01:18.506Z,98410.5499599923
2023-03-17T22:04:16.972Z,98406.01254563787
2023-03-17T22:07:17.952Z,98411.98988701413
2023-03-17T22:11:17.806Z,98410.64603891595
2023-03-17T22:14:20.098Z,98404.26781830314
2023-03-17T22:17:16.294Z,98403.22279639321
2023-03-17T22:21:16.808Z,98403.78041486084
2023-03-17T22:24:17.577Z,98401.78302599626
2023-03-17T22:27:17.518Z,98396.74545770884
2023-03-17T22:31:19.242Z,98405.2938364191
2023-03-17T22:34:17.704Z,98403.19802164938
2023-03-17T22:37:16.738Z,98401.02824676107
2023-03-17T22:41:18.363Z,98398.33133818592
2023-03-17T22:44:16.316Z,98399.80377535295
2023-03-17T22:47:16.073Z,98408.31068072037
2023-03-17T22:51:18.230Z,98403.73134242899
2023-03-17T22:54:18.791Z,98413.3708374197
2023-03-17T22:57:16.535Z,98405.40339829483
2023-03-17T23:01:18.560Z,98411.429821894
2023-03-17T23:04:16.692Z,98409.40016206687
2023-03-17T23:07:16.754Z,98416.95161851296
2023-03-17T23:11:21.638Z,98411.5349386742
2023-03-17T23:14:16.378Z,98413.42922427028
2023-03-17T23:17:16.477Z,98410.46633588742
2023-03-17T23:21:21.597Z,98412.27250604375
2023-03-17T23:24:17.414Z,98406.550022913
2023-03-17T23:27:16.765Z,98415.70082967482
2023-03-17T23:31:19.647Z,98408.92797563176
2023-03-17T23:34:16.634Z,98413.75192332389
2023-03-17T23:37:16.699Z,98413.3022882001
2023-03-17T23:41:15.955Z,98410.28075172097
2023-03-17T23:44:16.443Z,98410.73294705803
2023-03-17T23:47:16.960Z,98414.29424699684
2023-03-17T23:51:16.290Z,98421.6477128221
2023-03-17T23:54:16.691Z,98424.67648324756
2023-03-17T23:57:16.372Z,98424.82418891949
